sensor_id;sensor_type;location;lat;lon;timestamp;P1;durP1;ratioP1;P2;durP2;ratioP2
22577;SDS011;11455;52.390;13.028;2023-07-20T00:01:56;2.67;;;2.40;;
22577;SDS011;11455;52.390;13.028;2023-07-20T00:04:28;4.20;;;2.50;;
22577;SDS011;11455;52.390;13.028;2023-07-20T00:07:01;3.53;;;2.60;;
22577;SDS011;11455;52.390;13.028;2023-07-20T00:09:55;4.10;;;2.33;;
22577;SDS011;11455;52.390;13.028;2023-07-20T00:12:28;16.38;;;12.95;;
22577;SDS011;11455;52.390;13.028;2023-07-20T00:15:02;5.85;;;4.70;;
22577;SDS011;11455;52.390;13.028;2023-07-20T00:17:28;3.25;;;2.70;;
22577;SDS011;11455;52.390;13.028;2023-07-20T00:20:07;2.80;;;2.60;;
22577;SDS011;11455;52.390;13.028;2023-07-20T00:22:40;3.40;;;2.53;;
22577;SDS011;11455;52.390;13.028;2023-07-20T00:25:12;3.20;;;2.90;;
22577;SDS011;11455;52.390;13.028;2023-07-20T00:27:44;4.13;;;2.92;;
22577;SDS011;11455;52.390;13.028;2023-07-20T00:30:16;4.13;;;2.60;;
22577;SDS011;11455;52.390;13.028;2023-07-20T00:32:48;3.67;;;2.83;;
22577;SDS011;11455;52.390;13.028;2023-07-20T00:35:30;2.67;;;2.47;;
22577;SDS011;11455;52.390;13.028;2023-07-20T00:38:02;5.28;;;2.58;;
22577;SDS011;11455;52.390;13.028;2023-07-20T00:40:37;3.55;;;2.50;;
22577;SDS011;11455;52.390;13.028;2023-07-20T00:43:10;2.70;;;2.50;;
22577;SDS011;11455;52.390;13.028;2023-07-20T00:45:42;2.83;;;2.60;;
22577;SDS011;11455;52.390;13.028;2023-07-20T00:48:20;3.38;;;2.83;;
22577;SDS011;11455;52.390;13.028;2023-07-20T00:50:52;2.60;;;2.40;;
22577;SDS011;11455;52.390;13.028;2023-07-20T00:53:26;4.35;;;2.92;;
22577;SDS011;11455;52.390;13.028;2023-07-20T00:56:03;3.22;;;2.83;;
22577;SDS011;11455;52.390;13.028;2023-07-20T00:58:37;3.25;;;2.63;;
22577;SDS011;11455;52.390;13.028;2023-07-20T01:01:12;4.30;;;3.00;;
22577;SDS011;11455;52.390;13.028;2023-07-20T01:03:47;3.17;;;2.83;;
22577;SDS011;11455;52.390;13.028;2023-07-20T01:06:30;3.92;;;2.70;;
22577;SDS011;11455;52.390;13.028;2023-07-20T01:09:28;3.50;;;3.20;;
22577;SDS011;11455;52.390;13.028;2023-07-20T01:12:22;4.85;;;2.97;;
22577;SDS011;11455;52.390;13.028;2023-07-20T01:15:10;3.00;;;2.70;;
22577;SDS011;11455;52.390;13.028;2023-07-20T01:17:48;2.70;;;2.47;;
22577;SDS011;11455;52.390;13.028;2023-07-20T01:20:22;3.65;;;2.83;;
22577;SDS011;11455;52.390;13.028;2023-07-20T01:23:12;3.75;;;2.67;;
22577;SDS011;11455;52.390;13.028;2023-07-20T01:32:05;2.83;;;2.53;;
22577;SDS011;11455;52.390;13.028;2023-07-20T01:34:39;4.45;;;3.22;;
22577;SDS011;11455;52.390;13.028;2023-07-20T01:37:15;5.10;;;2.60;;
22577;SDS011;11455;52.390;13.028;2023-07-20T01:39:49;3.10;;;2.80;;
22577;SDS011;11455;52.390;13.028;2023-07-20T01:42:22;3.45;;;2.95;;
22577;SDS011;11455;52.390;13.028;2023-07-20T01:44:56;3.65;;;2.95;;
22577;SDS011;11455;52.390;13.028;2023-07-20T01:47:29;3.60;;;3.30;;
22577;SDS011;11455;52.390;13.028;2023-07-20T01:50:01;3.22;;;2.95;;
22577;SDS011;11455;52.390;13.028;2023-07-20T01:52:33;4.15;;;3.15;;
22577;SDS011;11455;52.390;13.028;2023-07-20T01:55:05;3.30;;;3.00;;
22577;SDS011;11455;52.390;13.028;2023-07-20T01:57:40;3.15;;;2.90;;
22577;SDS011;11455;52.390;13.028;2023-07-20T02:00:18;3.03;;;2.60;;
22577;SDS011;11455;52.390;13.028;2023-07-20T02:02:56;3.25;;;2.95;;
22577;SDS011;11455;52.390;13.028;2023-07-20T02:05:28;4.40;;;3.50;;
22577;SDS011;11455;52.390;13.028;2023-07-20T02:08:00;4.13;;;3.10;;
22577;SDS011;11455;52.390;13.028;2023-07-20T02:10:35;3.85;;;3.55;;
22577;SDS011;11455;52.390;13.028;2023-07-20T02:13:07;3.63;;;3.33;;
22577;SDS011;11455;52.390;13.028;2023-07-20T02:15:39;3.40;;;3.10;;
22577;SDS011;11455;52.390;13.028;2023-07-20T02:18:12;3.25;;;2.95;;
22577;SDS011;11455;52.390;13.028;2023-07-20T02:20:44;5.25;;;3.40;;
22577;SDS011;11455;52.390;13.028;2023-07-20T02:23:19;3.38;;;3.15;;
22577;SDS011;11455;52.390;13.028;2023-07-20T02:25:53;3.70;;;3.37;;
22577;SDS011;11455;52.390;13.028;2023-07-20T02:28:30;5.18;;;3.97;;
22577;SDS011;11455;52.390;13.028;2023-07-20T02:31:03;4.10;;;3.67;;
22577;SDS011;11455;52.390;13.028;2023-07-20T02:33:35;5.70;;;3.97;;
22577;SDS011;11455;52.390;13.028;2023-07-20T02:36:07;4.35;;;3.95;;
22577;SDS011;11455;52.390;13.028;2023-07-20T02:38:39;7.35;;;4.65;;
22577;SDS011;11455;52.390;13.028;2023-07-20T02:41:11;4.65;;;3.72;;
22577;SDS011;11455;52.390;13.028;2023-07-20T02:43:45;5.45;;;4.15;;
22577;SDS011;11455;52.390;13.028;2023-07-20T02:46:17;5.72;;;4.13;;
22577;SDS011;11455;52.390;13.028;2023-07-20T02:48:49;7.13;;;4.95;;
22577;SDS011;11455;52.390;13.028;2023-07-20T02:51:23;5.18;;;4.68;;
22577;SDS011;11455;52.390;13.028;2023-07-20T02:53:58;6.93;;;5.80;;
22577;SDS011;11455;52.390;13.028;2023-07-20T02:56:31;8.18;;;5.10;;
22577;SDS011;11455;52.390;13.028;2023-07-20T02:59:03;6.13;;;5.22;;
22577;SDS011;11455;52.390;13.028;2023-07-20T03:01:36;5.97;;;5.10;;
22577;SDS011;11455;52.390;13.028;2023-07-20T03:04:08;6.15;;;5.18;;
22577;SDS011;11455;52.390;13.028;2023-07-20T03:06:45;7.38;;;5.28;;
22577;SDS011;11455;52.390;13.028;2023-07-20T03:09:28;5.93;;;5.15;;
22577;SDS011;11455;52.390;13.028;2023-07-20T03:12:04;7.53;;;6.18;;
22577;SDS011;11455;52.390;13.028;2023-07-20T03:14:37;8.15;;;6.40;;
22577;SDS011;11455;52.390;13.028;2023-07-20T03:17:11;7.65;;;6.07;;
22577;SDS011;11455;52.390;13.028;2023-07-20T03:19:45;8.32;;;7.07;;
22577;SDS011;11455;52.390;13.028;2023-07-20T03:22:27;10.80;;;8.02;;
22577;SDS011;11455;52.390;13.028;2023-07-20T03:24:59;8.95;;;8.05;;
22577;SDS011;11455;52.390;13.028;2023-07-20T03:27:31;9.85;;;8.82;;
22577;SDS011;11455;52.390;13.028;2023-07-20T03:30:05;10.88;;;9.50;;
22577;SDS011;11455;52.390;13.028;2023-07-20T03:32:39;11.13;;;8.68;;
22577;SDS011;11455;52.390;13.028;2023-07-20T03:35:11;11.82;;;9.40;;
22577;SDS011;11455;52.390;13.028;2023-07-20T03:37:49;11.02;;;8.88;;
22577;SDS011;11455;52.390;13.028;2023-07-20T03:40:22;10.82;;;8.60;;
22577;SDS011;11455;52.390;13.028;2023-07-20T03:42:54;11.02;;;8.88;;
22577;SDS011;11455;52.390;13.028;2023-07-20T03:45:26;11.40;;;8.73;;
22577;SDS011;11455;52.390;13.028;2023-07-20T03:47:59;10.25;;;8.80;;
22577;SDS011;11455;52.390;13.028;2023-07-20T03:50:31;10.48;;;8.88;;
22577;SDS011;11455;52.390;13.028;2023-07-20T03:53:04;10.80;;;8.52;;
22577;SDS011;11455;52.390;13.028;2023-07-20T03:55:36;11.55;;;9.07;;
22577;SDS011;11455;52.390;13.028;2023-07-20T03:58:08;11.20;;;8.73;;
22577;SDS011;11455;52.390;13.028;2023-07-20T04:00:49;9.65;;;8.65;;
22577;SDS011;11455;52.390;13.028;2023-07-20T04:03:23;10.63;;;9.52;;
22577;SDS011;11455;52.390;13.028;2023-07-20T04:05:58;11.77;;;9.13;;
22577;SDS011;11455;52.390;13.028;2023-07-20T04:08:30;11.88;;;8.13;;
22577;SDS011;11455;52.390;13.028;2023-07-20T04:11:02;11.57;;;8.50;;
22577;SDS011;11455;52.390;13.028;2023-07-20T04:13:36;10.70;;;7.97;;
22577;SDS011;11455;52.390;13.028;2023-07-20T04:16:08;9.13;;;8.02;;
22577;SDS011;11455;52.390;13.028;2023-07-20T04:18:50;11.13;;;8.88;;
22577;SDS011;11455;52.390;13.028;2023-07-20T04:21:25;8.45;;;7.28;;
22577;SDS011;11455;52.390;13.028;2023-07-20T04:23:58;10.38;;;7.70;;
22577;SDS011;11455;52.390;13.028;2023-07-20T04:26:31;9.50;;;8.30;;
22577;SDS011;11455;52.390;13.028;2023-07-20T04:29:04;9.38;;;7.80;;
22577;SDS011;11455;52.390;13.028;2023-07-20T04:31:39;9.98;;;8.05;;
22577;SDS011;11455;52.390;13.028;2023-07-20T04:34:11;8.30;;;7.32;;
22577;SDS011;11455;52.390;13.028;2023-07-20T04:36:44;9.45;;;7.45;;
22577;SDS011;11455;52.390;13.028;2023-07-20T04:39:17;9.07;;;7.25;;
22577;SDS011;11455;52.390;13.028;2023-07-20T04:41:49;7.78;;;6.97;;
22577;SDS011;11455;52.390;13.028;2023-07-20T04:44:22;9.52;;;7.85;;
22577;SDS011;11455;52.390;13.028;2023-07-20T04:46:55;7.25;;;6.55;;
22577;SDS011;11455;52.390;13.028;2023-07-20T04:49:28;7.78;;;6.95;;
22577;SDS011;11455;52.390;13.028;2023-07-20T04:52:01;7.55;;;6.68;;
22577;SDS011;11455;52.390;13.028;2023-07-20T04:54:37;8.73;;;6.50;;
22577;SDS011;11455;52.390;13.028;2023-07-20T04:57:11;7.57;;;6.18;;
22577;SDS011;11455;52.390;13.028;2023-07-20T04:59:47;6.38;;;5.78;;
22577;SDS011;11455;52.390;13.028;2023-07-20T05:02:20;7.00;;;6.30;;
22577;SDS011;11455;52.390;13.028;2023-07-20T05:04:52;7.07;;;6.43;;
22577;SDS011;11455;52.390;13.028;2023-07-20T05:07:24;8.63;;;6.85;;
22577;SDS011;11455;52.390;13.028;2023-07-20T05:09:59;6.25;;;5.65;;
22577;SDS011;11455;52.390;13.028;2023-07-20T05:12:31;7.00;;;6.15;;
22577;SDS011;11455;52.390;13.028;2023-07-20T05:15:03;6.70;;;6.00;;
22577;SDS011;11455;52.390;13.028;2023-07-20T05:17:40;8.93;;;6.65;;
22577;SDS011;11455;52.390;13.028;2023-07-20T05:20:13;7.75;;;6.82;;
22577;SDS011;11455;52.390;13.028;2023-07-20T05:22:56;7.28;;;6.55;;
22577;SDS011;11455;52.390;13.028;2023-07-20T05:25:28;9.43;;;6.97;;
22577;SDS011;11455;52.390;13.028;2023-07-20T05:28:00;7.97;;;6.82;;
22577;SDS011;11455;52.390;13.028;2023-07-20T05:30:32;7.95;;;6.50;;
22577;SDS011;11455;52.390;13.028;2023-07-20T05:33:04;10.30;;;6.80;;
22577;SDS011;11455;52.390;13.028;2023-07-20T05:35:36;7.13;;;6.35;;
22577;SDS011;11455;52.390;13.028;2023-07-20T05:38:14;8.13;;;6.80;;
22577;SDS011;11455;52.390;13.028;2023-07-20T05:40:47;11.32;;;6.30;;
22577;SDS011;11455;52.390;13.028;2023-07-20T05:43:22;8.43;;;6.63;;
22577;SDS011;11455;52.390;13.028;2023-07-20T05:45:54;8.50;;;7.00;;
22577;SDS011;11455;52.390;13.028;2023-07-20T05:48:26;8.48;;;6.45;;
22577;SDS011;11455;52.390;13.028;2023-07-20T05:51:01;7.70;;;6.75;;
22577;SDS011;11455;52.390;13.028;2023-07-20T05:53:33;6.13;;;5.30;;
22577;SDS011;11455;52.390;13.028;2023-07-20T05:56:06;6.07;;;5.38;;
22577;SDS011;11455;52.390;13.028;2023-07-20T05:58:41;9.40;;;5.97;;
22577;SDS011;11455;52.390;13.028;2023-07-20T06:01:17;6.22;;;5.47;;
22577;SDS011;11455;52.390;13.028;2023-07-20T06:03:51;6.63;;;5.47;;
22577;SDS011;11455;52.390;13.028;2023-07-20T06:06:25;5.43;;;4.80;;
22577;SDS011;11455;52.390;13.028;2023-07-20T06:08:57;4.45;;;3.92;;
22577;SDS011;11455;52.390;13.028;2023-07-20T06:11:29;3.97;;;3.67;;
22577;SDS011;11455;52.390;13.028;2023-07-20T06:14:04;4.85;;;4.18;;
22577;SDS011;11455;52.390;13.028;2023-07-20T06:16:36;3.50;;;3.20;;
22577;SDS011;11455;52.390;13.028;2023-07-20T06:19:18;3.47;;;2.65;;
22577;SDS011;11455;52.390;13.028;2023-07-20T06:21:53;4.47;;;2.95;;
22577;SDS011;11455;52.390;13.028;2023-07-20T06:24:41;4.32;;;3.35;;
22577;SDS011;11455;52.390;13.028;2023-07-20T06:27:15;3.80;;;3.47;;
22577;SDS011;11455;52.390;13.028;2023-07-20T06:29:47;3.35;;;3.08;;
22577;SDS011;11455;52.390;13.028;2023-07-20T06:32:19;3.50;;;3.20;;
22577;SDS011;11455;52.390;13.028;2023-07-20T06:34:51;6.47;;;3.17;;
22577;SDS011;11455;52.390;13.028;2023-07-20T06:37:23;3.25;;;2.95;;
22577;SDS011;11455;52.390;13.028;2023-07-20T06:39:56;2.92;;;2.53;;
22577;SDS011;11455;52.390;13.028;2023-07-20T06:42:28;2.55;;;2.35;;
22577;SDS011;11455;52.390;13.028;2023-07-20T06:45:00;3.10;;;2.47;;
22577;SDS011;11455;52.390;13.028;2023-07-20T06:47:33;2.67;;;2.47;;
22577;SDS011;11455;52.390;13.028;2023-07-20T06:50:06;3.60;;;2.88;;
22577;SDS011;11455;52.390;13.028;2023-07-20T06:52:38;3.28;;;2.63;;
22577;SDS011;11455;52.390;13.028;2023-07-20T06:55:11;2.50;;;2.25;;
22577;SDS011;11455;52.390;13.028;2023-07-20T06:57:44;2.28;;;2.08;;
22577;SDS011;11455;52.390;13.028;2023-07-20T07:00:19;2.30;;;2.10;;
22577;SDS011;11455;52.390;13.028;2023-07-20T07:02:55;1.65;;;1.55;;
22577;SDS011;11455;52.390;13.028;2023-07-20T07:05:27;2.25;;;1.85;;
22577;SDS011;11455;52.390;13.028;2023-07-20T07:07:52;1.73;;;1.63;;
22577;SDS011;11455;52.390;13.028;2023-07-20T07:10:25;1.30;;;1.20;;
22577;SDS011;11455;52.390;13.028;2023-07-20T07:12:57;4.05;;;1.13;;
22577;SDS011;11455;52.390;13.028;2023-07-20T07:15:29;1.15;;;1.13;;
22577;SDS011;11455;52.390;13.028;2023-07-20T07:18:01;1.40;;;1.20;;
22577;SDS011;11455;52.390;13.028;2023-07-20T07:20:35;1.03;;;0.93;;
22577;SDS011;11455;52.390;13.028;2023-07-20T07:23:09;1.57;;;1.23;;
22577;SDS011;11455;52.390;13.028;2023-07-20T07:25:41;1.05;;;1.00;;
22577;SDS011;11455;52.390;13.028;2023-07-20T07:28:16;1.08;;;1.05;;
22577;SDS011;11455;52.390;13.028;2023-07-20T07:30:48;1.75;;;1.02;;
22577;SDS011;11455;52.390;13.028;2023-07-20T07:33:20;0.90;;;0.88;;
22577;SDS011;11455;52.390;13.028;2023-07-20T07:35:52;1.13;;;0.90;;
22577;SDS011;11455;52.390;13.028;2023-07-20T07:38:24;0.68;;;0.68;;
22577;SDS011;11455;52.390;13.028;2023-07-20T07:40:57;1.10;;;1.00;;
22577;SDS011;11455;52.390;13.028;2023-07-20T07:43:30;0.80;;;0.70;;
22577;SDS011;11455;52.390;13.028;2023-07-20T07:46:09;1.15;;;0.70;;
22577;SDS011;11455;52.390;13.028;2023-07-20T07:48:42;1.25;;;0.73;;
22577;SDS011;11455;52.390;13.028;2023-07-20T07:51:14;1.38;;;0.63;;
22577;SDS011;11455;52.390;13.028;2023-07-20T07:53:49;1.40;;;0.82;;
22577;SDS011;11455;52.390;13.028;2023-07-20T07:56:22;0.60;;;0.57;;
22577;SDS011;11455;52.390;13.028;2023-07-20T07:58:54;0.70;;;0.70;;
22577;SDS011;11455;52.390;13.028;2023-07-20T08:01:26;0.80;;;0.80;;
22577;SDS011;11455;52.390;13.028;2023-07-20T08:03:58;1.17;;;0.90;;
22577;SDS011;11455;52.390;13.028;2023-07-20T08:06:30;1.20;;;0.85;;
22577;SDS011;11455;52.390;13.028;2023-07-20T08:09:03;0.88;;;0.80;;
22577;SDS011;11455;52.390;13.028;2023-07-20T08:11:35;1.70;;;0.95;;
22577;SDS011;11455;52.390;13.028;2023-07-20T08:14:07;1.15;;;0.90;;
22577;SDS011;11455;52.390;13.028;2023-07-20T08:16:39;0.60;;;0.60;;
22577;SDS011;11455;52.390;13.028;2023-07-20T08:19:11;1.60;;;0.80;;
22577;SDS011;11455;52.390;13.028;2023-07-20T08:21:52;1.10;;;0.75;;
22577;SDS011;11455;52.390;13.028;2023-07-20T08:24:24;1.55;;;0.90;;
22577;SDS011;11455;52.390;13.028;2023-07-20T08:26:56;1.67;;;1.10;;
22577;SDS011;11455;52.390;13.028;2023-07-20T08:29:28;1.02;;;0.93;;
22577;SDS011;11455;52.390;13.028;2023-07-20T08:32:01;2.40;;;1.30;;
22577;SDS011;11455;52.390;13.028;2023-07-20T08:34:34;2.20;;;1.10;;
22577;SDS011;11455;52.390;13.028;2023-07-20T08:37:06;3.33;;;0.77;;
22577;SDS011;11455;52.390;13.028;2023-07-20T08:39:38;1.08;;;0.95;;
22577;SDS011;11455;52.390;13.028;2023-07-20T08:42:10;0.88;;;0.82;;
22577;SDS011;11455;52.390;13.028;2023-07-20T08:44:44;0.80;;;0.80;;
22577;SDS011;11455;52.390;13.028;2023-07-20T08:47:20;0.73;;;0.73;;
22577;SDS011;11455;52.390;13.028;2023-07-20T08:49:54;0.88;;;0.88;;
22577;SDS011;11455;52.390;13.028;2023-07-20T08:52:27;0.60;;;0.60;;
22577;SDS011;11455;52.390;13.028;2023-07-20T08:55:00;1.75;;;0.60;;
22577;SDS011;11455;52.390;13.028;2023-07-20T08:57:35;0.63;;;0.52;;
22577;SDS011;11455;52.390;13.028;2023-07-20T09:00:10;0.60;;;0.60;;
22577;SDS011;11455;52.390;13.028;2023-07-20T09:02:45;3.60;;;0.70;;
22577;SDS011;11455;52.390;13.028;2023-07-20T09:05:19;0.40;;;0.40;;
22577;SDS011;11455;52.390;13.028;2023-07-20T09:07:58;0.70;;;0.70;;
22577;SDS011;11455;52.390;13.028;2023-07-20T09:10:30;2.50;;;0.40;;
22577;SDS011;11455;52.390;13.028;2023-07-20T09:13:03;1.00;;;0.43;;
22577;SDS011;11455;52.390;13.028;2023-07-20T09:15:35;0.50;;;0.28;;
22577;SDS011;11455;52.390;13.028;2023-07-20T09:18:22;0.55;;;0.40;;
22577;SDS011;11455;52.390;13.028;2023-07-20T09:21:02;0.47;;;0.30;;
22577;SDS011;11455;52.390;13.028;2023-07-20T09:23:42;0.85;;;0.47;;
22577;SDS011;11455;52.390;13.028;2023-07-20T09:26:18;2.03;;;0.50;;
22577;SDS011;11455;52.390;13.028;2023-07-20T09:28:53;1.27;;;0.40;;
22577;SDS011;11455;52.390;13.028;2023-07-20T09:31:28;0.40;;;0.40;;
22577;SDS011;11455;52.390;13.028;2023-07-20T09:34:02;0.82;;;0.32;;
22577;SDS011;11455;52.390;13.028;2023-07-20T09:36:36;0.65;;;0.47;;
22577;SDS011;11455;52.390;13.028;2023-07-20T09:39:09;0.40;;;0.40;;
22577;SDS011;11455;52.390;13.028;2023-07-20T09:41:41;0.63;;;0.40;;
22577;SDS011;11455;52.390;13.028;2023-07-20T09:44:16;0.40;;;0.30;;
22577;SDS011;11455;52.390;13.028;2023-07-20T09:46:48;0.50;;;0.50;;
22577;SDS011;11455;52.390;13.028;2023-07-20T09:49:22;0.50;;;0.40;;
22577;SDS011;11455;52.390;13.028;2023-07-20T09:51:54;0.98;;;0.40;;
22577;SDS011;11455;52.390;13.028;2023-07-20T09:54:29;1.30;;;0.50;;
22577;SDS011;11455;52.390;13.028;2023-07-20T09:57:05;2.20;;;0.63;;
22577;SDS011;11455;52.390;13.028;2023-07-20T09:59:40;0.60;;;0.55;;
22577;SDS011;11455;52.390;13.028;2023-07-20T10:02:23;1.05;;;0.40;;
22577;SDS011;11455;52.390;13.028;2023-07-20T10:05:01;0.30;;;0.30;;
22577;SDS011;11455;52.390;13.028;2023-07-20T10:07:40;1.45;;;0.40;;
22577;SDS011;11455;52.390;13.028;2023-07-20T10:10:18;5.15;;;0.60;;
22577;SDS011;11455;52.390;13.028;2023-07-20T10:12:51;1.60;;;0.52;;
22577;SDS011;11455;52.390;13.028;2023-07-20T10:15:24;0.60;;;0.60;;
22577;SDS011;11455;52.390;13.028;2023-07-20T10:18:09;0.60;;;0.60;;
22577;SDS011;11455;52.390;13.028;2023-07-20T10:21:03;0.60;;;0.60;;
22577;SDS011;11455;52.390;13.028;2023-07-20T10:23:39;1.17;;;0.57;;
22577;SDS011;11455;52.390;13.028;2023-07-20T10:26:17;2.25;;;0.70;;
22577;SDS011;11455;52.390;13.028;2023-07-20T10:28:49;1.85;;;0.63;;
22577;SDS011;11455;52.390;13.028;2023-07-20T10:31:24;0.70;;;0.70;;
22577;SDS011;11455;52.390;13.028;2023-07-20T10:34:00;1.10;;;0.70;;
22577;SDS011;11455;52.390;13.028;2023-07-20T10:36:33;0.50;;;0.50;;
22577;SDS011;11455;52.390;13.028;2023-07-20T10:39:38;0.93;;;0.60;;
22577;SDS011;11455;52.390;13.028;2023-07-20T10:42:12;0.70;;;0.70;;
22577;SDS011;11455;52.390;13.028;2023-07-20T10:44:44;1.50;;;0.43;;
22577;SDS011;11455;52.390;13.028;2023-07-20T10:47:18;1.02;;;0.60;;
22577;SDS011;11455;52.390;13.028;2023-07-20T10:49:59;1.13;;;0.47;;
22577;SDS011;11455;52.390;13.028;2023-07-20T10:52:41;1.75;;;0.45;;
22577;SDS011;11455;52.390;13.028;2023-07-20T10:55:14;0.70;;;0.68;;
22577;SDS011;11455;52.390;13.028;2023-07-20T10:58:06;0.60;;;0.60;;
22577;SDS011;11455;52.390;13.028;2023-07-20T11:03:34;0.75;;;0.75;;
22577;SDS011;11455;52.390;13.028;2023-07-20T11:11:38;0.88;;;0.60;;
22577;SDS011;11455;52.390;13.028;2023-07-20T11:14:21;0.47;;;0.47;;
22577;SDS011;11455;52.390;13.028;2023-07-20T11:17:13;0.50;;;0.50;;
22577;SDS011;11455;52.390;13.028;2023-07-20T11:19:57;1.08;;;0.60;;
22577;SDS011;11455;52.390;13.028;2023-07-20T11:22:35;0.93;;;0.50;;
22577;SDS011;11455;52.390;13.028;2023-07-20T11:25:09;1.35;;;0.50;;
22577;SDS011;11455;52.390;13.028;2023-07-20T11:27:45;0.50;;;0.50;;
22577;SDS011;11455;52.390;13.028;2023-07-20T11:30:18;1.35;;;0.82;;
22577;SDS011;11455;52.390;13.028;2023-07-20T11:32:50;1.08;;;0.55;;
22577;SDS011;11455;52.390;13.028;2023-07-20T11:35:24;1.13;;;0.47;;
22577;SDS011;11455;52.390;13.028;2023-07-20T11:37:56;1.35;;;0.85;;
22577;SDS011;11455;52.390;13.028;2023-07-20T11:40:28;0.60;;;0.60;;
22577;SDS011;11455;52.390;13.028;2023-07-20T11:43:00;0.93;;;0.50;;
22577;SDS011;11455;52.390;13.028;2023-07-20T11:45:33;0.50;;;0.50;;
22577;SDS011;11455;52.390;13.028;2023-07-20T11:48:08;0.52;;;0.50;;
22577;SDS011;11455;52.390;13.028;2023-07-20T11:50:49;1.67;;;0.40;;
22577;SDS011;11455;52.390;13.028;2023-07-20T11:53:21;0.40;;;0.40;;
22577;SDS011;11455;52.390;13.028;2023-07-20T11:55:56;0.47;;;0.30;;
22577;SDS011;11455;52.390;13.028;2023-07-20T11:58:29;0.55;;;0.40;;
22577;SDS011;11455;52.390;13.028;2023-07-20T12:01:03;0.25;;;0.25;;
22577;SDS011;11455;52.390;13.028;2023-07-20T12:03:37;2.53;;;0.32;;
22577;SDS011;11455;52.390;13.028;2023-07-20T12:06:09;0.30;;;0.30;;
22577;SDS011;11455;52.390;13.028;2023-07-20T12:08:44;0.57;;;0.40;;
22577;SDS011;11455;52.390;13.028;2023-07-20T12:11:30;0.38;;;0.38;;
22577;SDS011;11455;52.390;13.028;2023-07-20T12:14:03;0.38;;;0.30;;
22577;SDS011;11455;52.390;13.028;2023-07-20T12:16:38;0.55;;;0.43;;
22577;SDS011;11455;52.390;13.028;2023-07-20T12:19:12;0.22;;;0.22;;
22577;SDS011;11455;52.390;13.028;2023-07-20T12:21:59;2.17;;;0.43;;
22577;SDS011;11455;52.390;13.028;2023-07-20T12:24:32;0.95;;;0.43;;
22577;SDS011;11455;52.390;13.028;2023-07-20T12:27:05;0.85;;;0.40;;
22577;SDS011;11455;52.390;13.028;2023-07-20T12:29:37;0.88;;;0.40;;
22577;SDS011;11455;52.390;13.028;2023-07-20T12:32:09;0.40;;;0.40;;
22577;SDS011;11455;52.390;13.028;2023-07-20T12:34:44;0.30;;;0.30;;
22577;SDS011;11455;52.390;13.028;2023-07-20T12:37:19;0.40;;;0.40;;
22577;SDS011;11455;52.390;13.028;2023-07-20T12:39:53;0.57;;;0.30;;
22577;SDS011;11455;52.390;13.028;2023-07-20T12:42:25;0.22;;;0.22;;
22577;SDS011;11455;52.390;13.028;2023-07-20T12:44:58;0.35;;;0.28;;
22577;SDS011;11455;52.390;13.028;2023-07-20T12:47:30;0.70;;;0.40;;
22577;SDS011;11455;52.390;13.028;2023-07-20T12:50:02;0.75;;;0.40;;
22577;SDS011;11455;52.390;13.028;2023-07-20T12:52:39;0.30;;;0.30;;
22577;SDS011;11455;52.390;13.028;2023-07-20T12:55:14;0.80;;;0.35;;
22577;SDS011;11455;52.390;13.028;2023-07-20T12:57:47;0.40;;;0.22;;
22577;SDS011;11455;52.390;13.028;2023-07-20T13:00:19;0.60;;;0.20;;
22577;SDS011;11455;52.390;13.028;2023-07-20T13:02:45;0.30;;;0.30;;
22577;SDS011;11455;52.390;13.028;2023-07-20T13:05:17;0.30;;;0.30;;
22577;SDS011;11455;52.390;13.028;2023-07-20T13:07:49;0.63;;;0.63;;
22577;SDS011;11455;52.390;13.028;2023-07-20T13:10:22;0.50;;;0.30;;
22577;SDS011;11455;52.390;13.028;2023-07-20T13:12:54;0.20;;;0.20;;
22577;SDS011;11455;52.390;13.028;2023-07-20T13:15:30;0.20;;;0.20;;
22577;SDS011;11455;52.390;13.028;2023-07-20T13:18:03;0.40;;;0.40;;
22577;SDS011;11455;52.390;13.028;2023-07-20T13:20:35;0.40;;;0.30;;
22577;SDS011;11455;52.390;13.028;2023-07-20T13:23:14;0.30;;;0.25;;
22577;SDS011;11455;52.390;13.028;2023-07-20T13:25:46;0.30;;;0.30;;
22577;SDS011;11455;52.390;13.028;2023-07-20T13:28:18;0.30;;;0.30;;
22577;SDS011;11455;52.390;13.028;2023-07-20T13:30:52;1.08;;;0.35;;
22577;SDS011;11455;52.390;13.028;2023-07-20T13:33:24;0.80;;;0.32;;
22577;SDS011;11455;52.390;13.028;2023-07-20T13:35:56;0.10;;;0.10;;
22577;SDS011;11455;52.390;13.028;2023-07-20T13:38:28;0.80;;;0.13;;
22577;SDS011;11455;52.390;13.028;2023-07-20T13:41:00;0.82;;;0.40;;
22577;SDS011;11455;52.390;13.028;2023-07-20T13:43:32;1.67;;;0.60;;
22577;SDS011;11455;52.390;13.028;2023-07-20T13:46:04;0.40;;;0.32;;
22577;SDS011;11455;52.390;13.028;2023-07-20T13:48:36;0.45;;;0.28;;
22577;SDS011;11455;52.390;13.028;2023-07-20T13:51:08;0.13;;;0.13;;
22577;SDS011;11455;52.390;13.028;2023-07-20T13:53:40;1.15;;;0.30;;
22577;SDS011;11455;52.390;13.028;2023-07-20T13:56:29;0.35;;;0.35;;
22577;SDS011;11455;52.390;13.028;2023-07-20T13:59:02;0.57;;;0.20;;
22577;SDS011;11455;52.390;13.028;2023-07-20T14:01:34;0.20;;;0.20;;
22577;SDS011;11455;52.390;13.028;2023-07-20T14:04:07;0.98;;;0.38;;
22577;SDS011;11455;52.390;13.028;2023-07-20T14:06:40;0.25;;;0.25;;
22577;SDS011;11455;52.390;13.028;2023-07-20T14:09:12;0.47;;;0.28;;
22577;SDS011;11455;52.390;13.028;2023-07-20T14:11:45;0.40;;;0.30;;
22577;SDS011;11455;52.390;13.028;2023-07-20T14:14:17;0.28;;;0.20;;
22577;SDS011;11455;52.390;13.028;2023-07-20T14:16:50;2.05;;;0.25;;
22577;SDS011;11455;52.390;13.028;2023-07-20T14:19:29;0.20;;;0.20;;
22577;SDS011;11455;52.390;13.028;2023-07-20T14:22:08;0.20;;;0.20;;
22577;SDS011;11455;52.390;13.028;2023-07-20T14:24:40;0.60;;;0.28;;
22577;SDS011;11455;52.390;13.028;2023-07-20T14:27:12;0.30;;;0.30;;
22577;SDS011;11455;52.390;13.028;2023-07-20T14:29:44;0.90;;;0.20;;
22577;SDS011;11455;52.390;13.028;2023-07-20T14:32:16;0.20;;;0.20;;
22577;SDS011;11455;52.390;13.028;2023-07-20T14:34:48;0.32;;;0.25;;
22577;SDS011;11455;52.390;13.028;2023-07-20T14:37:21;0.68;;;0.52;;
22577;SDS011;11455;52.390;13.028;2023-07-20T14:39:53;0.30;;;0.28;;
22577;SDS011;11455;52.390;13.028;2023-07-20T14:42:28;0.30;;;0.30;;
22577;SDS011;11455;52.390;13.028;2023-07-20T14:45:00;0.50;;;0.35;;
22577;SDS011;11455;52.390;13.028;2023-07-20T14:47:35;0.30;;;0.30;;
22577;SDS011;11455;52.390;13.028;2023-07-20T14:50:07;1.10;;;0.17;;
22577;SDS011;11455;52.390;13.028;2023-07-20T14:52:42;0.50;;;0.35;;
22577;SDS011;11455;52.390;13.028;2023-07-20T14:55:08;1.92;;;0.45;;
22577;SDS011;11455;52.390;13.028;2023-07-20T14:57:40;0.20;;;0.20;;
22577;SDS011;11455;52.390;13.028;2023-07-20T15:00:12;1.05;;;0.30;;
22577;SDS011;11455;52.390;13.028;2023-07-20T15:02:47;0.43;;;0.30;;
22577;SDS011;11455;52.390;13.028;2023-07-20T15:05:24;0.40;;;0.40;;
22577;SDS011;11455;52.390;13.028;2023-07-20T15:07:58;0.90;;;0.30;;
22577;SDS011;11455;52.390;13.028;2023-07-20T15:10:30;0.47;;;0.30;;
22577;SDS011;11455;52.390;13.028;2023-07-20T15:13:04;0.82;;;0.40;;
22577;SDS011;11455;52.390;13.028;2023-07-20T15:15:36;0.40;;;0.30;;
22577;SDS011;11455;52.390;13.028;2023-07-20T15:18:09;0.22;;;0.20;;
22577;SDS011;11455;52.390;13.028;2023-07-20T15:20:50;0.30;;;0.30;;
22577;SDS011;11455;52.390;13.028;2023-07-20T15:23:25;0.85;;;0.30;;
22577;SDS011;11455;52.390;13.028;2023-07-20T15:25:57;0.40;;;0.35;;
22577;SDS011;11455;52.390;13.028;2023-07-20T15:28:29;0.52;;;0.30;;
22577;SDS011;11455;52.390;13.028;2023-07-20T15:31:01;0.40;;;0.40;;